sensor_id;sensor_type;location;lat;lon;timestamp;P1;durP1;ratioP1;P2;durP2;ratioP2
52854;SDS011;38719;51.418;7.286;2023-08-06T00:00:40;5.32;;;2.85;;
52854;SDS011;38719;51.418;7.286;2023-08-06T00:03:08;5.75;;;3.28;;
52854;SDS011;38719;51.418;7.286;2023-08-06T00:05:37;4.05;;;3.10;;
52854;SDS011;38719;51.418;7.286;2023-08-06T00:08:08;4.53;;;2.85;;
52854;SDS011;38719;51.418;7.286;2023-08-06T00:10:36;5.28;;;3.00;;
52854;SDS011;38719;51.418;7.286;2023-08-06T00:13:03;5.47;;;3.35;;
52854;SDS011;38719;51.418;7.286;2023-08-06T00:15:31;4.90;;;2.85;;
52854;SDS011;38719;51.418;7.286;2023-08-06T00:17:59;3.63;;;2.90;;
52854;SDS011;38719;51.418;7.286;2023-08-06T00:20:27;4.72;;;3.10;;
52854;SDS011;38719;51.418;7.286;2023-08-06T00:22:58;5.50;;;3.10;;
52854;SDS011;38719;51.418;7.286;2023-08-06T00:25:25;4.60;;;2.90;;
52854;SDS011;38719;51.418;7.286;2023-08-06T00:27:53;5.50;;;3.05;;
52854;SDS011;38719;51.418;7.286;2023-08-06T00:30:22;5.10;;;2.92;;
52854;SDS011;38719;51.418;7.286;2023-08-06T00:32:50;5.10;;;3.40;;
52854;SDS011;38719;51.418;7.286;2023-08-06T00:35:17;4.72;;;2.97;;
52854;SDS011;38719;51.418;7.286;2023-08-06T00:37:45;5.18;;;2.78;;
52854;SDS011;38719;51.418;7.286;2023-08-06T00:40:15;3.55;;;3.05;;
52854;SDS011;38719;51.418;7.286;2023-08-06T00:42:42;3.25;;;2.63;;
52854;SDS011;38719;51.418;7.286;2023-08-06T00:45:12;6.53;;;3.08;;
52854;SDS011;38719;51.418;7.286;2023-08-06T00:47:40;4.57;;;3.10;;
52854;SDS011;38719;51.418;7.286;2023-08-06T00:50:08;8.45;;;3.35;;
52854;SDS011;38719;51.418;7.286;2023-08-06T00:52:36;4.78;;;2.80;;
52854;SDS011;38719;51.418;7.286;2023-08-06T00:55:04;4.07;;;2.90;;
52854;SDS011;38719;51.418;7.286;2023-08-06T00:57:35;6.03;;;3.08;;
52854;SDS011;38719;51.418;7.286;2023-08-06T01:00:03;4.88;;;2.95;;
52854;SDS011;38719;51.418;7.286;2023-08-06T01:02:31;4.05;;;3.08;;
52854;SDS011;38719;51.418;7.286;2023-08-06T01:04:59;4.70;;;2.97;;
52854;SDS011;38719;51.418;7.286;2023-08-06T01:07:32;6.28;;;3.40;;
52854;SDS011;38719;51.418;7.286;2023-08-06T01:10:12;5.55;;;3.22;;
52854;SDS011;38719;51.418;7.286;2023-08-06T01:12:57;3.85;;;3.10;;
52854;SDS011;38719;51.418;7.286;2023-08-06T01:15:37;5.30;;;3.28;;
52854;SDS011;38719;51.418;7.286;2023-08-06T01:18:10;5.78;;;3.20;;
52854;SDS011;38719;51.418;7.286;2023-08-06T01:20:39;4.03;;;3.30;;
52854;SDS011;38719;51.418;7.286;2023-08-06T01:23:07;3.63;;;2.90;;
52854;SDS011;38719;51.418;7.286;2023-08-06T01:25:35;6.80;;;3.10;;
52854;SDS011;38719;51.418;7.286;2023-08-06T01:28:13;4.75;;;3.15;;
52854;SDS011;38719;51.418;7.286;2023-08-06T01:30:46;5.15;;;3.20;;
52854;SDS011;38719;51.418;7.286;2023-08-06T01:33:18;6.53;;;3.30;;
52854;SDS011;38719;51.418;7.286;2023-08-06T01:35:51;5.90;;;3.38;;
52854;SDS011;38719;51.418;7.286;2023-08-06T01:38:21;3.65;;;3.20;;
52854;SDS011;38719;51.418;7.286;2023-08-06T01:40:49;3.65;;;3.05;;
52854;SDS011;38719;51.418;7.286;2023-08-06T01:43:16;4.78;;;3.10;;
52854;SDS011;38719;51.418;7.286;2023-08-06T01:45:44;4.57;;;3.45;;
52854;SDS011;38719;51.418;7.286;2023-08-06T01:48:11;6.40;;;3.50;;
52854;SDS011;38719;51.418;7.286;2023-08-06T01:50:39;4.75;;;3.22;;
52854;SDS011;38719;51.418;7.286;2023-08-06T01:53:08;7.10;;;3.10;;
52854;SDS011;38719;51.418;7.286;2023-08-06T01:55:35;5.55;;;3.17;;
52854;SDS011;38719;51.418;7.286;2023-08-06T01:58:03;4.10;;;3.42;;
52854;SDS011;38719;51.418;7.286;2023-08-06T02:00:30;6.05;;;3.53;;
52854;SDS011;38719;51.418;7.286;2023-08-06T02:02:58;4.95;;;2.95;;
52854;SDS011;38719;51.418;7.286;2023-08-06T02:05:26;9.77;;;5.18;;
52854;SDS011;38719;51.418;7.286;2023-08-06T02:07:53;4.68;;;3.20;;
52854;SDS011;38719;51.418;7.286;2023-08-06T02:10:22;3.92;;;3.17;;
52854;SDS011;38719;51.418;7.286;2023-08-06T02:12:50;6.40;;;3.35;;
52854;SDS011;38719;51.418;7.286;2023-08-06T02:15:17;4.22;;;3.35;;
52854;SDS011;38719;51.418;7.286;2023-08-06T02:17:45;10.70;;;3.30;;
52854;SDS011;38719;51.418;7.286;2023-08-06T02:20:12;5.78;;;3.08;;
52854;SDS011;38719;51.418;7.286;2023-08-06T02:22:40;3.88;;;3.15;;
52854;SDS011;38719;51.418;7.286;2023-08-06T02:25:08;5.07;;;3.38;;
52854;SDS011;38719;51.418;7.286;2023-08-06T02:27:38;5.07;;;3.70;;
52854;SDS011;38719;51.418;7.286;2023-08-06T02:30:06;5.35;;;3.33;;
52854;SDS011;38719;51.418;7.286;2023-08-06T02:32:34;3.70;;;3.08;;
52854;SDS011;38719;51.418;7.286;2023-08-06T02:35:02;6.38;;;2.78;;
52854;SDS011;38719;51.418;7.286;2023-08-06T02:37:30;4.13;;;3.00;;
52854;SDS011;38719;51.418;7.286;2023-08-06T02:40:00;4.57;;;3.80;;
52854;SDS011;38719;51.418;7.286;2023-08-06T02:42:28;8.45;;;3.60;;
52854;SDS011;38719;51.418;7.286;2023-08-06T02:44:57;6.25;;;3.00;;
52854;SDS011;38719;51.418;7.286;2023-08-06T02:47:24;4.82;;;3.53;;
52854;SDS011;38719;51.418;7.286;2023-08-06T02:49:52;5.38;;;3.00;;
52854;SDS011;38719;51.418;7.286;2023-08-06T02:52:19;6.10;;;3.15;;
52854;SDS011;38719;51.418;7.286;2023-08-06T02:54:47;6.07;;;3.20;;
52854;SDS011;38719;51.418;7.286;2023-08-06T02:57:15;4.20;;;3.00;;
52854;SDS011;38719;51.418;7.286;2023-08-06T02:59:42;5.97;;;2.92;;
52854;SDS011;38719;51.418;7.286;2023-08-06T03:02:11;4.95;;;3.42;;
52854;SDS011;38719;51.418;7.286;2023-08-06T03:04:39;3.67;;;3.13;;
52854;SDS011;38719;51.418;7.286;2023-08-06T03:07:06;3.30;;;2.97;;
52854;SDS011;38719;51.418;7.286;2023-08-06T03:09:34;3.60;;;2.75;;
52854;SDS011;38719;51.418;7.286;2023-08-06T03:12:01;6.45;;;3.00;;
52854;SDS011;38719;51.418;7.286;2023-08-06T03:14:29;4.15;;;3.15;;
52854;SDS011;38719;51.418;7.286;2023-08-06T03:16:57;5.40;;;3.00;;
52854;SDS011;38719;51.418;7.286;2023-08-06T03:19:26;3.60;;;2.88;;
52854;SDS011;38719;51.418;7.286;2023-08-06T03:21:53;4.05;;;3.00;;
52854;SDS011;38719;51.418;7.286;2023-08-06T03:24:21;4.25;;;3.33;;
52854;SDS011;38719;51.418;7.286;2023-08-06T03:26:48;4.47;;;2.80;;
52854;SDS011;38719;51.418;7.286;2023-08-06T03:29:16;3.75;;;3.00;;
52854;SDS011;38719;51.418;7.286;2023-08-06T03:31:44;6.15;;;3.40;;
52854;SDS011;38719;51.418;7.286;2023-08-06T03:34:11;4.38;;;3.03;;
52854;SDS011;38719;51.418;7.286;2023-08-06T03:36:40;7.28;;;3.50;;
52854;SDS011;38719;51.418;7.286;2023-08-06T03:39:08;6.28;;;3.28;;
52854;SDS011;38719;51.418;7.286;2023-08-06T03:41:35;3.75;;;2.95;;
52854;SDS011;38719;51.418;7.286;2023-08-06T03:44:03;4.47;;;2.97;;
52854;SDS011;38719;51.418;7.286;2023-08-06T03:46:31;3.90;;;2.90;;
52854;SDS011;38719;51.418;7.286;2023-08-06T03:49:00;3.88;;;2.88;;
52854;SDS011;38719;51.418;7.286;2023-08-06T03:51:27;4.05;;;3.08;;
52854;SDS011;38719;51.418;7.286;2023-08-06T03:53:56;6.32;;;2.92;;
52854;SDS011;38719;51.418;7.286;2023-08-06T03:56:24;3.28;;;2.80;;
52854;SDS011;38719;51.418;7.286;2023-08-06T03:58:52;8.77;;;3.13;;
52854;SDS011;38719;51.418;7.286;2023-08-06T04:01:19;5.32;;;2.72;;
52854;SDS011;38719;51.418;7.286;2023-08-06T04:03:47;3.90;;;2.70;;
52854;SDS011;38719;51.418;7.286;2023-08-06T04:06:15;5.28;;;2.85;;
52854;SDS011;38719;51.418;7.286;2023-08-06T04:08:42;3.20;;;2.53;;
52854;SDS011;38719;51.418;7.286;2023-08-06T04:11:11;5.22;;;2.50;;
52854;SDS011;38719;51.418;7.286;2023-08-06T04:13:41;5.13;;;2.63;;
52854;SDS011;38719;51.418;7.286;2023-08-06T04:16:09;7.63;;;2.88;;
52854;SDS011;38719;51.418;7.286;2023-08-06T04:18:37;4.90;;;2.50;;
52854;SDS011;38719;51.418;7.286;2023-08-06T04:21:04;4.18;;;2.33;;
52854;SDS011;38719;51.418;7.286;2023-08-06T04:23:32;3.60;;;2.97;;
52854;SDS011;38719;51.418;7.286;2023-08-06T04:26:00;6.97;;;2.63;;
52854;SDS011;38719;51.418;7.286;2023-08-06T04:28:29;3.00;;;2.53;;
52854;SDS011;38719;51.418;7.286;2023-08-06T04:30:58;7.15;;;2.40;;
52854;SDS011;38719;51.418;7.286;2023-08-06T04:33:26;3.60;;;2.35;;
52854;SDS011;38719;51.418;7.286;2023-08-06T04:35:54;2.83;;;2.30;;
52854;SDS011;38719;51.418;7.286;2023-08-06T04:38:23;5.55;;;2.80;;
52854;SDS011;38719;51.418;7.286;2023-08-06T04:40:51;3.45;;;2.33;;
52854;SDS011;38719;51.418;7.286;2023-08-06T04:43:18;5.85;;;2.50;;
52854;SDS011;38719;51.418;7.286;2023-08-06T04:45:48;3.92;;;2.53;;
52854;SDS011;38719;51.418;7.286;2023-08-06T04:48:16;4.25;;;2.60;;
52854;SDS011;38719;51.418;7.286;2023-08-06T04:50:44;3.83;;;2.67;;
52854;SDS011;38719;51.418;7.286;2023-08-06T04:53:12;3.45;;;2.35;;
52854;SDS011;38719;51.418;7.286;2023-08-06T04:55:39;3.97;;;2.70;;
52854;SDS011;38719;51.418;7.286;2023-08-06T04:58:08;9.20;;;2.60;;
52854;SDS011;38719;51.418;7.286;2023-08-06T05:00:36;4.20;;;2.67;;
52854;SDS011;38719;51.418;7.286;2023-08-06T05:03:05;4.90;;;2.78;;
52854;SDS011;38719;51.418;7.286;2023-08-06T05:05:33;6.07;;;2.92;;
52854;SDS011;38719;51.418;7.286;2023-08-06T05:08:01;4.05;;;2.58;;
52854;SDS011;38719;51.418;7.286;2023-08-06T05:10:29;6.05;;;2.90;;
52854;SDS011;38719;51.418;7.286;2023-08-06T05:12:56;5.35;;;3.00;;
52854;SDS011;38719;51.418;7.286;2023-08-06T05:15:24;4.97;;;2.70;;
52854;SDS011;38719;51.418;7.286;2023-08-06T05:17:52;6.72;;;2.90;;
52854;SDS011;38719;51.418;7.286;2023-08-06T05:20:21;4.63;;;3.00;;
52854;SDS011;38719;51.418;7.286;2023-08-06T05:22:49;12.45;;;3.22;;
52854;SDS011;38719;51.418;7.286;2023-08-06T05:25:17;6.38;;;2.83;;
52854;SDS011;38719;51.418;7.286;2023-08-06T05:27:44;3.38;;;2.70;;
52854;SDS011;38719;51.418;7.286;2023-08-06T05:30:12;7.18;;;2.75;;
52854;SDS011;38719;51.418;7.286;2023-08-06T05:32:40;8.15;;;3.10;;
52854;SDS011;38719;51.418;7.286;2023-08-06T05:35:07;6.88;;;2.55;;
52854;SDS011;38719;51.418;7.286;2023-08-06T05:37:36;5.18;;;3.85;;
52854;SDS011;38719;51.418;7.286;2023-08-06T05:40:04;3.15;;;2.50;;
52854;SDS011;38719;51.418;7.286;2023-08-06T05:42:32;5.47;;;2.75;;
52854;SDS011;38719;51.418;7.286;2023-08-06T05:45:00;3.22;;;2.53;;
52854;SDS011;38719;51.418;7.286;2023-08-06T05:47:27;4.30;;;2.75;;
52854;SDS011;38719;51.418;7.286;2023-08-06T05:49:55;6.50;;;2.83;;
52854;SDS011;38719;51.418;7.286;2023-08-06T05:52:22;3.75;;;2.80;;
52854;SDS011;38719;51.418;7.286;2023-08-06T05:54:51;5.60;;;2.95;;
52854;SDS011;38719;51.418;7.286;2023-08-06T05:57:19;4.88;;;3.03;;
52854;SDS011;38719;51.418;7.286;2023-08-06T05:59:47;3.78;;;2.80;;
52854;SDS011;38719;51.418;7.286;2023-08-06T06:02:14;5.28;;;2.80;;
52854;SDS011;38719;51.418;7.286;2023-08-06T06:04:42;5.45;;;2.75;;
52854;SDS011;38719;51.418;7.286;2023-08-06T06:07:09;2.78;;;2.40;;
52854;SDS011;38719;51.418;7.286;2023-08-06T06:09:37;5.20;;;2.75;;
52854;SDS011;38719;51.418;7.286;2023-08-06T06:12:07;3.67;;;3.05;;
52854;SDS011;38719;51.418;7.286;2023-08-06T06:14:35;3.67;;;2.67;;
52854;SDS011;38719;51.418;7.286;2023-08-06T06:17:02;4.60;;;2.83;;
52854;SDS011;38719;51.418;7.286;2023-08-06T06:19:30;4.53;;;2.53;;
52854;SDS011;38719;51.418;7.286;2023-08-06T06:21:58;5.47;;;2.70;;
52854;SDS011;38719;51.418;7.286;2023-08-06T06:24:25;5.82;;;2.70;;
52854;SDS011;38719;51.418;7.286;2023-08-06T06:26:53;4.68;;;3.00;;
52854;SDS011;38719;51.418;7.286;2023-08-06T06:29:22;5.82;;;2.42;;
52854;SDS011;38719;51.418;7.286;2023-08-06T06:31:49;5.18;;;2.40;;
52854;SDS011;38719;51.418;7.286;2023-08-06T06:34:17;5.80;;;2.70;;
52854;SDS011;38719;51.418;7.286;2023-08-06T06:36:45;3.67;;;2.70;;
52854;SDS011;38719;51.418;7.286;2023-08-06T06:39:12;5.80;;;2.92;;
52854;SDS011;38719;51.418;7.286;2023-08-06T06:41:40;4.40;;;2.70;;
52854;SDS011;38719;51.418;7.286;2023-08-06T06:44:08;5.03;;;2.47;;
52854;SDS011;38719;51.418;7.286;2023-08-06T06:46:37;3.25;;;2.42;;
52854;SDS011;38719;51.418;7.286;2023-08-06T06:49:04;5.00;;;2.45;;
52854;SDS011;38719;51.418;7.286;2023-08-06T06:51:32;5.68;;;2.50;;
52854;SDS011;38719;51.418;7.286;2023-08-06T06:53:59;6.05;;;2.40;;
52854;SDS011;38719;51.418;7.286;2023-08-06T06:56:27;3.58;;;2.50;;
52854;SDS011;38719;51.418;7.286;2023-08-06T06:58:54;4.43;;;2.63;;
52854;SDS011;38719;51.418;7.286;2023-08-06T07:01:22;3.97;;;2.47;;
52854;SDS011;38719;51.418;7.286;2023-08-06T07:03:51;3.28;;;2.40;;
52854;SDS011;38719;51.418;7.286;2023-08-06T07:06:19;3.47;;;2.15;;
52854;SDS011;38719;51.418;7.286;2023-08-06T07:08:46;2.33;;;2.03;;
52854;SDS011;38719;51.418;7.286;2023-08-06T07:11:14;3.13;;;2.10;;
52854;SDS011;38719;51.418;7.286;2023-08-06T07:13:41;2.78;;;2.00;;
52854;SDS011;38719;51.418;7.286;2023-08-06T07:16:09;3.47;;;2.20;;
52854;SDS011;38719;51.418;7.286;2023-08-06T07:18:37;4.28;;;2.55;;
52854;SDS011;38719;51.418;7.286;2023-08-06T07:21:06;3.20;;;2.55;;
52854;SDS011;38719;51.418;7.286;2023-08-06T07:23:33;3.83;;;2.28;;
52854;SDS011;38719;51.418;7.286;2023-08-06T07:26:01;6.10;;;2.40;;
52854;SDS011;38719;51.418;7.286;2023-08-06T07:28:28;2.60;;;2.30;;
52854;SDS011;38719;51.418;7.286;2023-08-06T07:30:56;3.85;;;2.38;;
52854;SDS011;38719;51.418;7.286;2023-08-06T07:33:24;5.22;;;1.70;;
52854;SDS011;38719;51.418;7.286;2023-08-06T07:35:51;2.97;;;2.05;;
52854;SDS011;38719;51.418;7.286;2023-08-06T07:38:20;4.80;;;2.10;;
52854;SDS011;38719;51.418;7.286;2023-08-06T07:40:48;2.65;;;2.00;;
52854;SDS011;38719;51.418;7.286;2023-08-06T07:43:15;2.20;;;1.80;;
52854;SDS011;38719;51.418;7.286;2023-08-06T07:45:43;2.55;;;2.05;;
52854;SDS011;38719;51.418;7.286;2023-08-06T07:48:10;3.65;;;2.20;;
52854;SDS011;38719;51.418;7.286;2023-08-06T07:50:38;5.00;;;3.35;;
52854;SDS011;38719;51.418;7.286;2023-08-06T07:53:06;2.60;;;2.05;;
52854;SDS011;38719;51.418;7.286;2023-08-06T07:55:34;6.20;;;1.80;;
52854;SDS011;38719;51.418;7.286;2023-08-06T07:58:02;2.55;;;2.05;;
52854;SDS011;38719;51.418;7.286;2023-08-06T08:00:30;2.88;;;1.90;;
52854;SDS011;38719;51.418;7.286;2023-08-06T08:02:57;3.90;;;2.13;;
52854;SDS011;38719;51.418;7.286;2023-08-06T08:05:25;2.75;;;2.05;;
52854;SDS011;38719;51.418;7.286;2023-08-06T08:07:53;4.07;;;1.83;;
52854;SDS011;38719;51.418;7.286;2023-08-06T08:10:20;3.60;;;2.03;;
52854;SDS011;38719;51.418;7.286;2023-08-06T08:12:49;2.10;;;1.90;;
52854;SDS011;38719;51.418;7.286;2023-08-06T08:15:17;2.22;;;1.60;;
52854;SDS011;38719;51.418;7.286;2023-08-06T08:17:44;2.38;;;1.92;;
52854;SDS011;38719;51.418;7.286;2023-08-06T08:20:14;1.98;;;1.80;;
52854;SDS011;38719;51.418;7.286;2023-08-06T08:22:43;1.85;;;1.65;;
52854;SDS011;38719;51.418;7.286;2023-08-06T08:25:11;5.65;;;2.10;;
52854;SDS011;38719;51.418;7.286;2023-08-06T08:27:38;20.13;;;2.55;;
52854;SDS011;38719;51.418;7.286;2023-08-06T08:30:08;2.67;;;1.67;;
52854;SDS011;38719;51.418;7.286;2023-08-06T08:32:35;5.07;;;2.05;;
52854;SDS011;38719;51.418;7.286;2023-08-06T08:35:03;2.95;;;1.90;;
52854;SDS011;38719;51.418;7.286;2023-08-06T08:37:31;2.40;;;1.83;;
52854;SDS011;38719;51.418;7.286;2023-08-06T08:39:59;4.22;;;2.25;;
52854;SDS011;38719;51.418;7.286;2023-08-06T08:42:27;5.45;;;2.20;;
52854;SDS011;38719;51.418;7.286;2023-08-06T08:44:54;3.78;;;2.67;;
52854;SDS011;38719;51.418;7.286;2023-08-06T08:47:25;5.20;;;3.03;;
52854;SDS011;38719;51.418;7.286;2023-08-06T08:49:54;6.57;;;2.53;;
52854;SDS011;38719;51.418;7.286;2023-08-06T08:52:22;3.35;;;2.50;;
52854;SDS011;38719;51.418;7.286;2023-08-06T08:54:50;3.67;;;2.22;;
52854;SDS011;38719;51.418;7.286;2023-08-06T08:57:19;2.97;;;2.47;;
52854;SDS011;38719;51.418;7.286;2023-08-06T08:59:48;3.90;;;2.53;;
52854;SDS011;38719;51.418;7.286;2023-08-06T09:02:15;5.30;;;2.55;;
52854;SDS011;38719;51.418;7.286;2023-08-06T09:04:45;2.30;;;2.10;;
52854;SDS011;38719;51.418;7.286;2023-08-06T09:07:16;2.78;;;2.25;;
52854;SDS011;38719;51.418;7.286;2023-08-06T09:09:46;11.07;;;2.50;;
52854;SDS011;38719;51.418;7.286;2023-08-06T09:12:16;4.82;;;2.17;;
52854;SDS011;38719;51.418;7.286;2023-08-06T09:14:44;3.92;;;2.30;;
52854;SDS011;38719;51.418;7.286;2023-08-06T09:17:12;3.70;;;2.05;;
52854;SDS011;38719;51.418;7.286;2023-08-06T09:19:41;5.28;;;2.28;;
52854;SDS011;38719;51.418;7.286;2023-08-06T09:22:13;4.15;;;2.03;;
52854;SDS011;38719;51.418;7.286;2023-08-06T09:24:41;8.90;;;2.10;;
52854;SDS011;38719;51.418;7.286;2023-08-06T09:27:12;4.95;;;3.30;;
52854;SDS011;38719;51.418;7.286;2023-08-06T09:29:41;2.95;;;2.30;;
52854;SDS011;38719;51.418;7.286;2023-08-06T09:32:10;8.52;;;2.58;;
52854;SDS011;38719;51.418;7.286;2023-08-06T09:34:38;3.50;;;2.20;;
52854;SDS011;38719;51.418;7.286;2023-08-06T09:37:08;5.65;;;2.33;;
52854;SDS011;38719;51.418;7.286;2023-08-06T09:39:38;4.13;;;2.80;;
52854;SDS011;38719;51.418;7.286;2023-08-06T09:42:06;2.90;;;2.70;;
52854;SDS011;38719;51.418;7.286;2023-08-06T09:44:33;3.10;;;2.58;;
52854;SDS011;38719;51.418;7.286;2023-08-06T09:47:02;7.55;;;3.25;;
52854;SDS011;38719;51.418;7.286;2023-08-06T09:49:40;3.97;;;2.55;;
52854;SDS011;38719;51.418;7.286;2023-08-06T09:52:10;5.72;;;2.80;;
52854;SDS011;38719;51.418;7.286;2023-08-06T09:54:40;4.28;;;3.60;;
52854;SDS011;38719;51.418;7.286;2023-08-06T09:57:08;4.85;;;2.80;;
52854;SDS011;38719;51.418;7.286;2023-08-06T09:59:35;5.25;;;3.00;;
52854;SDS011;38719;51.418;7.286;2023-08-06T10:02:06;5.22;;;3.10;;
52854;SDS011;38719;51.418;7.286;2023-08-06T10:04:39;4.70;;;3.50;;
52854;SDS011;38719;51.418;7.286;2023-08-06T10:07:08;4.03;;;2.85;;
52854;SDS011;38719;51.418;7.286;2023-08-06T10:09:36;5.55;;;3.00;;
52854;SDS011;38719;51.418;7.286;2023-08-06T10:12:05;3.42;;;3.10;;
52854;SDS011;38719;51.418;7.286;2023-08-06T10:14:34;3.65;;;3.10;;
52854;SDS011;38719;51.418;7.286;2023-08-06T10:17:04;3.75;;;3.17;;
52854;SDS011;38719;51.418;7.286;2023-08-06T10:19:32;4.63;;;3.20;;
52854;SDS011;38719;51.418;7.286;2023-08-06T10:22:10;6.15;;;3.00;;
52854;SDS011;38719;51.418;7.286;2023-08-06T10:24:47;4.85;;;2.80;;
52854;SDS011;38719;51.418;7.286;2023-08-06T10:27:21;3.50;;;2.30;;
52854;SDS011;38719;51.418;7.286;2023-08-06T10:29:49;3.22;;;2.92;;
52854;SDS011;38719;51.418;7.286;2023-08-06T10:32:17;4.38;;;2.90;;
52854;SDS011;38719;51.418;7.286;2023-08-06T10:34:55;3.83;;;2.80;;
52854;SDS011;38719;51.418;7.286;2023-08-06T10:37:34;4.15;;;2.97;;
52854;SDS011;38719;51.418;7.286;2023-08-06T10:40:02;3.45;;;2.92;;
52854;SDS011;38719;51.418;7.286;2023-08-06T10:42:34;5.50;;;3.13;;
52854;SDS011;38719;51.418;7.286;2023-08-06T10:45:12;7.78;;;3.65;;
52854;SDS011;38719;51.418;7.286;2023-08-06T10:47:41;4.18;;;3.05;;
52854;SDS011;38719;51.418;7.286;2023-08-06T10:50:11;7.18;;;4.10;;
52854;SDS011;38719;51.418;7.286;2023-08-06T10:52:39;6.28;;;3.53;;
52854;SDS011;38719;51.418;7.286;2023-08-06T10:55:07;4.32;;;3.53;;
52854;SDS011;38719;51.418;7.286;2023-08-06T10:57:37;5.47;;;4.00;;
52854;SDS011;38719;51.418;7.286;2023-08-06T11:00:05;6.75;;;4.07;;
52854;SDS011;38719;51.418;7.286;2023-08-06T11:02:42;6.47;;;4.35;;
52854;SDS011;38719;51.418;7.286;2023-08-06T11:05:10;5.90;;;3.90;;
52854;SDS011;38719;51.418;7.286;2023-08-06T11:07:38;10.68;;;3.95;;
52854;SDS011;38719;51.418;7.286;2023-08-06T11:10:06;4.70;;;3.95;;
52854;SDS011;38719;51.418;7.286;2023-08-06T11:12:35;7.28;;;4.10;;
52854;SDS011;38719;51.418;7.286;2023-08-06T11:15:05;4.38;;;3.53;;
52854;SDS011;38719;51.418;7.286;2023-08-06T11:17:34;6.72;;;3.67;;
52854;SDS011;38719;51.418;7.286;2023-08-06T11:20:02;4.60;;;4.10;;
52854;SDS011;38719;51.418;7.286;2023-08-06T11:22:31;6.72;;;4.00;;
52854;SDS011;38719;51.418;7.286;2023-08-06T11:24:59;4.47;;;3.42;;
52854;SDS011;38719;51.418;7.286;2023-08-06T11:27:27;4.65;;;3.75;;
52854;SDS011;38719;51.418;7.286;2023-08-06T11:29:55;4.05;;;3.65;;
52854;SDS011;38719;51.418;7.286;2023-08-06T11:32:24;4.47;;;3.50;;
52854;SDS011;38719;51.418;7.286;2023-08-06T11:34:53;5.13;;;4.50;;
52854;SDS011;38719;51.418;7.286;2023-08-06T11:37:22;4.05;;;3.30;;
52854;SDS011;38719;51.418;7.286;2023-08-06T11:39:51;3.70;;;3.40;;
52854;SDS011;38719;51.418;7.286;2023-08-06T11:42:19;4.80;;;3.53;;
52854;SDS011;38719;51.418;7.286;2023-08-06T11:44:46;5.72;;;3.53;;
52854;SDS011;38719;51.418;7.286;2023-08-06T11:47:15;4.53;;;3.28;;
52854;SDS011;38719;51.418;7.286;2023-08-06T11:49:46;6.68;;;3.60;;
52854;SDS011;38719;51.418;7.286;2023-08-06T11:52:15;4.43;;;3.63;;
52854;SDS011;38719;51.418;7.286;2023-08-06T11:54:59;5.90;;;3.65;;
52854;SDS011;38719;51.418;7.286;2023-08-06T11:57:29;6.78;;;4.15;;
52854;SDS011;38719;51.418;7.286;2023-08-06T12:00:01;4.05;;;3.65;;
52854;SDS011;38719;51.418;7.286;2023-08-06T12:02:31;4.47;;;3.90;;
52854;SDS011;38719;51.418;7.286;2023-08-06T12:05:09;3.72;;;3.35;;
52854;SDS011;38719;51.418;7.286;2023-08-06T12:07:38;5.00;;;2.97;;
52854;SDS011;38719;51.418;7.286;2023-08-06T12:10:09;4.57;;;2.75;;
52854;SDS011;38719;51.418;7.286;2023-08-06T12:12:37;3.83;;;2.30;;
52854;SDS011;38719;51.418;7.286;2023-08-06T12:15:05;2.70;;;2.35;;
52854;SDS011;38719;51.418;7.286;2023-08-06T12:17:33;2.30;;;2.10;;
52854;SDS011;38719;51.418;7.286;2023-08-06T12:20:02;3.60;;;2.10;;
52854;SDS011;38719;51.418;7.286;2023-08-06T12:22:33;2.72;;;1.88;;
52854;SDS011;38719;51.418;7.286;2023-08-06T12:25:02;2.15;;;1.95;;
52854;SDS011;38719;51.418;7.286;2023-08-06T12:27:33;2.35;;;2.15;;
52854;SDS011;38719;51.418;7.286;2023-08-06T12:30:00;3.40;;;2.40;;
52854;SDS011;38719;51.418;7.286;2023-08-06T12:32:29;2.45;;;2.25;;
52854;SDS011;38719;51.418;7.286;2023-08-06T12:34:57;3.20;;;2.20;;
52854;SDS011;38719;51.418;7.286;2023-08-06T12:37:25;2.72;;;2.30;;
52854;SDS011;38719;51.418;7.286;2023-08-06T12:39:54;2.40;;;2.20;;
52854;SDS011;38719;51.418;7.286;2023-08-06T12:42:21;2.30;;;2.10;;
52854;SDS011;38719;51.418;7.286;2023-08-06T12:44:50;3.80;;;2.20;;
52854;SDS011;38719;51.418;7.286;2023-08-06T12:47:18;2.60;;;2.40;;
52854;SDS011;38719;51.418;7.286;2023-08-06T12:49:46;3.03;;;2.60;;
52854;SDS011;38719;51.418;7.286;2023-08-06T12:52:13;2.50;;;2.30;;
52854;SDS011;38719;51.418;7.286;2023-08-06T12:54:42;2.40;;;2.20;;
52854;SDS011;38719;51.418;7.286;2023-08-06T12:57:13;2.22;;;1.90;;
52854;SDS011;38719;51.418;7.286;2023-08-06T12:59:41;2.15;;;1.98;;
52854;SDS011;38719;51.418;7.286;2023-08-06T13:02:08;2.75;;;1.90;;
52854;SDS011;38719;51.418;7.286;2023-08-06T13:04:36;2.00;;;1.80;;
52854;SDS011;38719;51.418;7.286;2023-08-06T13:07:03;2.42;;;1.70;;
52854;SDS011;38719;51.418;7.286;2023-08-06T13:09:32;2.72;;;1.80;;
52854;SDS011;38719;51.418;7.286;2023-08-06T13:12:00;2.40;;;1.50;;
52854;SDS011;38719;51.418;7.286;2023-08-06T13:14:33;3.22;;;1.75;;
52854;SDS011;38719;51.418;7.286;2023-08-06T13:17:00;1.60;;;1.50;;
52854;SDS011;38719;51.418;7.286;2023-08-06T13:19:28;1.98;;;1.33;;
52854;SDS011;38719;51.418;7.286;2023-08-06T13:21:59;1.98;;;1.33;;
52854;SDS011;38719;51.418;7.286;2023-08-06T13:24:30;1.55;;;1.45;;
52854;SDS011;38719;51.418;7.286;2023-08-06T13:26:57;1.38;;;1.27;;
52854;SDS011;38719;51.418;7.286;2023-08-06T13:29:25;1.83;;;1.50;;
52854;SDS011;38719;51.418;7.286;2023-08-06T13:31:55;1.67;;;1.58;;
52854;SDS011;38719;51.418;7.286;2023-08-06T13:34:22;1.48;;;1.38;;
52854;SDS011;38719;51.418;7.286;2023-08-06T13:36:50;1.70;;;1.60;;
52854;SDS011;38719;51.418;7.286;2023-08-06T13:39:18;3.10;;;2.00;;
52854;SDS011;38719;51.418;7.286;2023-08-06T13:41:46;2.00;;;1.77;;
52854;SDS011;38719;51.418;7.286;2023-08-06T13:44:14;2.13;;;1.80;;
52854;SDS011;38719;51.418;7.286;2023-08-06T13:46:42;2.72;;;1.90;;
52854;SDS011;38719;51.418;7.286;2023-08-06T13:49:11;2.78;;;1.90;;
52854;SDS011;38719;51.418;7.286;2023-08-06T13:51:38;1.70;;;1.60;;
52854;SDS011;38719;51.418;7.286;2023-08-06T13:54:06;2.47;;;2.00;;
52854;SDS011;38719;51.418;7.286;2023-08-06T13:56:34;2.53;;;1.98;;
52854;SDS011;38719;51.418;7.286;2023-08-06T13:59:04;3.75;;;1.95;;
52854;SDS011;38719;51.418;7.286;2023-08-06T14:01:32;1.70;;;1.60;;
52854;SDS011;38719;51.418;7.286;2023-08-06T14:04:16;3.38;;;1.73;;
52854;SDS011;38719;51.418;7.286;2023-08-06T14:06:43;1.88;;;1.75;;
52854;SDS011;38719;51.418;7.286;2023-08-06T14:09:11;2.08;;;1.90;;
52854;SDS011;38719;51.418;7.286;2023-08-06T14:11:40;2.28;;;1.90;;
52854;SDS011;38719;51.418;7.286;2023-08-06T14:14:08;3.97;;;2.00;;
52854;SDS011;38719;51.418;7.286;2023-08-06T14:16:36;2.28;;;1.95;;
52854;SDS011;38719;51.418;7.286;2023-08-06T14:19:03;2.70;;;2.50;;
52854;SDS011;38719;51.418;7.286;2023-08-06T14:21:33;5.68;;;2.50;;
52854;SDS011;38719;51.418;7.286;2023-08-06T14:24:00;7.47;;;2.70;;
52854;SDS011;38719;51.418;7.286;2023-08-06T14:26:29;3.35;;;2.75;;
52854;SDS011;38719;51.418;7.286;2023-08-06T14:28:57;4.65;;;2.78;;
52854;SDS011;38719;51.418;7.286;2023-08-06T14:31:24;5.55;;;3.03;;
52854;SDS011;38719;51.418;7.286;2023-08-06T14:33:52;3.25;;;2.95;;
52854;SDS011;38719;51.418;7.286;2023-08-06T14:36:19;4.68;;;2.97;;
52854;SDS011;38719;51.418;7.286;2023-08-06T14:38:48;3.90;;;2.85;;
52854;SDS011;38719;51.418;7.286;2023-08-06T14:41:25;3.17;;;2.72;;
52854;SDS011;38719;51.418;7.286;2023-08-06T14:43:53;5.13;;;2.55;;
52854;SDS011;38719;51.418;7.286;2023-08-06T14:46:21;4.05;;;2.83;;
52854;SDS011;38719;51.418;7.286;2023-08-06T14:48:49;4.45;;;2.92;;
52854;SDS011;38719;51.418;7.286;2023-08-06T14:51:16;5.43;;;2.83;;
52854;SDS011;38719;51.418;7.286;2023-08-06T14:53:45;5.88;;;2.60;;
52854;SDS011;38719;51.418;7.286;2023-08-06T14:56:14;3.78;;;2.80;;